Time;durP1;ratioP1;P1;durP2;ratioP2;P2;SDS_P1;SDS_P2;PMS_P1;PMS_P2;Temp;Humidity;BMP_temperature;BMP_pressure;BME280_temperature;BME280_humidity;BME280_pressure;Samples;Min_cycle;Max_cycle;Signal;HPM_P1;HPM_P2
2022/11/30 00:01:13;;;;;;;38.13;29.10;;;7.70;99.90;;;;;;5036588;28;20423;-70
2022/11/30 00:03:39;;;;;;;36.30;26.30;;;7.80;99.90;;;;;;5036767;28;20901;-70
2022/11/30 00:06:10;;;;;;;41.63;27.33;;;8.00;99.90;;;;;;5036716;28;20411;-69
2022/11/30 00:08:36;;;;;;;38.53;29.30;;;7.90;99.90;;;;;;5036809;28;20417;-70
2022/11/30 00:11:13;;;;;;;37.40;27.70;;;7.80;99.90;;;;;;5037299;28;20407;-70
2022/11/30 00:13:38;;;;;;;43.63;31.70;;;7.70;99.90;;;;;;5036572;28;20401;-70
2022/11/30 00:16:05;;;;;;;36.50;28.33;;;7.70;99.90;;;;;;5036348;28;20917;-70
2022/11/30 00:18:30;;;;;;;39.47;26.93;;;7.70;99.90;;;;;;5036713;28;20181;-70
2022/11/30 00:21:04;;;;;;;43.40;29.90;;;7.80;99.90;;;;;;5036642;28;20408;-70
2022/11/30 00:23:39;;;;;;;38.70;28.83;;;7.80;99.90;;;;;;5036804;28;20176;-70
2022/11/30 00:26:07;;;;;;;35.37;26.37;;;7.70;99.90;;;;;;5036405;28;20442;-70
2022/11/30 00:28:34;;;;;;;38.77;27.80;;;7.60;99.90;;;;;;5036109;28;20424;-70
2022/11/30 00:31:02;;;;;;;42.17;29.83;;;7.60;99.90;;;;;;5036062;28;20465;-70
2022/11/30 00:33:30;;;;;;;39.70;30.17;;;8.00;99.90;;;;;;5036278;28;20405;-70
2022/11/30 00:36:02;;;;;;;37.23;28.93;;;7.90;99.90;;;;;;5036243;28;20457;-70
2022/11/30 00:38:29;;;;;;;34.80;26.87;;;7.80;99.90;;;;;;5036437;28;20467;-70
2022/11/30 00:40:55;;;;;;;41.23;29.03;;;7.90;99.90;;;;;;5036390;28;20418;-69
2022/11/30 00:43:21;;;;;;;38.93;27.07;;;7.80;99.90;;;;;;5036056;28;20444;-70
2022/11/30 00:45:46;;;;;;;42.33;30.30;;;7.80;99.90;;;;;;5035837;28;20176;-69
2022/11/30 00:48:12;;;;;;;42.07;28.97;;;7.70;99.90;;;;;;5034275;28;20561;-70
2022/11/30 00:50:37;;;;;;;89.20;55.63;;;8.00;99.90;;;;;;5035842;28;20253;-71
2022/11/30 00:53:03;;;;;;;44.90;32.77;;;7.90;99.90;;;;;;5037082;28;20261;-69
2022/11/30 00:55:30;;;;;;;37.20;28.20;;;7.90;99.90;;;;;;5035939;28;20169;-70
2022/11/30 00:57:56;;;;;;;39.43;28.03;;;7.90;99.90;;;;;;5035858;28;20566;-70
2022/11/30 01:00:21;;;;;;;36.37;27.30;;;7.90;99.90;;;;;;5034805;28;20433;-69
2022/11/30 01:02:47;;;;;;;34.77;26.43;;;8.00;99.90;;;;;;5035402;28;20601;-70
2022/11/30 01:05:13;;;;;;;33.57;24.87;;;8.00;99.90;;;;;;5035495;28;20174;-70
2022/11/30 01:07:38;;;;;;;35.07;27.43;;;8.20;99.90;;;;;;5034695;28;20558;-69
2022/11/30 01:10:04;;;;;;;36.07;26.83;;;8.10;99.90;;;;;;5033346;28;20178;-71
2022/11/30 01:12:30;;;;;;;37.23;28.37;;;8.30;99.90;;;;;;5035266;28;20170;-69
2022/11/30 01:14:56;;;;;;;38.80;31.50;;;8.50;99.90;;;;;;5035683;28;20489;-69
2022/11/30 01:17:21;;;;;;;32.20;25.80;;;8.20;99.90;;;;;;5035841;28;20195;-69
2022/11/30 01:19:47;;;;;;;35.23;26.90;;;8.20;99.90;;;;;;5035315;28;20181;-69
2022/11/30 01:22:12;;;;;;;35.90;28.30;;;8.20;99.90;;;;;;5030434;28;20202;-70
2022/11/30 01:24:38;;;;;;;35.77;27.67;;;8.20;99.90;;;;;;5035307;28;20207;-69
2022/11/30 01:27:03;;;;;;;38.20;26.73;;;8.20;99.90;;;;;;5034989;28;20196;-69
2022/11/30 01:29:29;;;;;;;35.67;27.93;;;8.00;99.90;;;;;;5035466;28;20170;-69
2022/11/30 01:31:54;;;;;;;33.30;26.00;;;7.90;99.90;;;;;;5035135;28;20538;-69
2022/11/30 01:34:20;;;;;;;35.73;26.07;;;7.80;99.90;;;;;;5033587;28;20182;-70
2022/11/30 01:36:47;;;;;;;31.70;27.23;;;7.80;99.90;;;;;;5035129;28;20168;-70
2022/11/30 01:39:13;;;;;;;34.30;25.63;;;8.00;99.90;;;;;;5034762;28;20155;-72
2022/11/30 01:41:38;;;;;;;32.37;26.13;;;8.30;99.90;;;;;;5033221;28;20463;-70
2022/11/30 01:44:04;;;;;;;37.20;27.87;;;8.10;99.90;;;;;;5034085;28;20238;-69
2022/11/30 01:46:52;;;;;;;35.23;25.87;;;8.10;99.90;;;;;;5033696;28;20465;-70
2022/11/30 01:49:59;;;;;;;33.60;25.30;;;8.10;99.90;;;;;;5035288;28;20162;-68
2022/11/30 01:52:30;;;;;;;40.50;28.70;;;8.10;99.90;;;;;;5012697;28;20463;-70
2022/11/30 01:55:31;;;;;;;39.67;29.70;;;8.20;99.90;;;;;;5034103;28;20424;-70
2022/11/30 01:58:04;;;;;;;31.97;24.83;;;8.20;99.90;;;;;;5020529;28;20438;-70
2022/11/30 02:00:29;;;;;;;34.10;24.20;;;8.10;99.90;;;;;;5033849;28;20417;-70
2022/11/30 02:03:05;;;;;;;32.23;24.60;;;8.00;99.90;;;;;;5035149;28;20790;-70
2022/11/30 02:05:35;;;;;;;34.43;25.33;;;8.00;99.90;;;;;;5033656;28;20173;-72
2022/11/30 02:08:01;;;;;;;31.07;24.30;;;7.90;99.90;;;;;;5022845;28;20443;-70
2022/11/30 02:10:33;;;;;;;31.47;23.83;;;7.90;99.90;;;;;;5034505;28;20780;-70
2022/11/30 02:13:36;;;;;;;31.37;22.50;;;7.90;99.90;;;;;;5034240;28;20168;-69
2022/11/30 02:16:32;;;;;;;29.37;22.70;;;7.80;99.90;;;;;;5034364;28;20409;-69
2022/11/30 02:19:10;;;;;;;28.57;22.73;;;7.80;99.90;;;;;;5014894;28;20819;-70
2022/11/30 02:21:35;;;;;;;32.63;23.90;;;8.00;99.90;;;;;;5014514;28;20964;-70
2022/11/30 02:24:33;;;;;;;32.10;23.70;;;8.00;99.90;;;;;;5014554;28;20500;-71
2022/11/30 02:27:37;;;;;;;29.23;23.90;;;8.00;99.90;;;;;;5032038;28;20200;-69
2022/11/30 02:30:12;;;;;;;28.83;23.90;;;8.00;99.90;;;;;;5034332;28;20380;-69
2022/11/30 02:32:55;;;;;;;30.30;23.90;;;7.80;99.90;;;;;;5033783;28;20439;-70
2022/11/30 02:35:26;;;;;;;29.30;23.07;;;7.50;99.90;;;;;;5029795;28;20421;-71
2022/11/30 02:37:53;;;;;;;30.77;22.80;;;7.60;99.90;;;;;;5022892;28;20465;-69
2022/11/30 02:40:20;;;;;;;33.33;26.00;;;7.60;99.90;;;;;;5014315;28;20763;-70
2022/11/30 02:42:48;;;;;;;31.00;24.53;;;7.70;99.90;;;;;;5013843;28;20445;-69
2022/11/30 02:45:14;;;;;;;30.20;24.23;;;7.80;99.90;;;;;;5014680;28;20403;-69
2022/11/30 02:47:45;;;;;;;32.90;25.43;;;8.00;99.90;;;;;;5018051;28;21031;-67
2022/11/30 02:50:17;;;;;;;42.80;29.17;;;7.80;99.90;;;;;;5033791;28;20387;-70
2022/11/30 02:52:44;;;;;;;40.20;29.60;;;7.90;99.90;;;;;;5032949;28;20403;-70
2022/11/30 02:55:14;;;;;;;36.63;26.97;;;8.10;99.90;;;;;;5033823;28;20407;-69
2022/11/30 02:57:39;;;;;;;28.67;21.67;;;8.20;99.90;;;;;;5033596;28;20486;-71
2022/11/30 03:00:08;;;;;;;31.60;24.20;;;8.10;99.90;;;;;;5033313;28;20821;-68
2022/11/30 03:02:34;;;;;;;31.70;23.13;;;8.10;99.90;;;;;;5033612;28;20198;-69
2022/11/30 03:04:59;;;;;;;35.97;25.87;;;8.00;99.90;;;;;;5032535;28;20425;-69
2022/11/30 03:07:25;;;;;;;29.23;23.87;;;7.90;99.90;;;;;;5033368;28;20455;-69
2022/11/30 03:09:50;;;;;;;29.40;22.50;;;7.90;99.90;;;;;;5033436;28;20178;-70
2022/11/30 03:12:16;;;;;;;35.47;22.70;;;7.80;99.90;;;;;;5033393;28;20541;-70
2022/11/30 03:14:41;;;;;;;29.80;22.73;;;7.60;99.90;;;;;;5033646;28;20250;-70
2022/11/30 03:17:07;;;;;;;28.90;22.33;;;7.60;99.90;;;;;;5031781;28;20202;-70
2022/11/30 03:19:33;;;;;;;29.70;21.53;;;7.60;99.90;;;;;;5031578;28;20666;-70
2022/11/30 03:21:58;;;;;;;29.40;23.20;;;7.50;99.90;;;;;;5033024;28;20281;-70
2022/11/30 03:24:24;;;;;;;26.77;20.53;;;7.50;99.90;;;;;;5034013;28;20171;-70
2022/11/30 03:26:50;;;;;;;25.20;20.77;;;7.50;99.90;;;;;;5032628;28;20548;-69
2022/11/30 03:29:16;;;;;;;28.23;21.63;;;7.50;99.90;;;;;;5033306;28;20200;-69
2022/11/30 03:31:41;;;;;;;24.60;19.80;;;7.50;99.90;;;;;;5033255;28;20654;-70
2022/11/30 03:34:07;;;;;;;28.93;22.00;;;7.40;99.90;;;;;;5032964;28;20177;-69
2022/11/30 03:36:32;;;;;;;28.17;20.03;;;7.50;99.90;;;;;;5032808;28;20650;-71
2022/11/30 03:38:58;;;;;;;24.37;19.80;;;7.80;99.90;;;;;;5032395;28;20194;-69
2022/11/30 03:41:23;;;;;;;23.70;19.50;;;7.80;99.90;;;;;;5032898;28;20240;-70
2022/11/30 03:43:49;;;;;;;26.87;21.87;;;7.80;99.90;;;;;;5032921;28;20172;-70
2022/11/30 03:46:15;;;;;;;23.60;19.70;;;7.80;99.90;;;;;;5033474;28;20171;-70
2022/11/30 03:48:40;;;;;;;25.20;20.27;;;8.10;99.90;;;;;;5031827;28;20193;-71
2022/11/30 03:51:06;;;;;;;25.93;21.87;;;8.20;99.90;;;;;;5032623;28;20635;-70
2022/11/30 03:53:32;;;;;;;25.33;19.97;;;8.30;99.90;;;;;;5033047;28;20173;-70
2022/11/30 03:56:01;;;;;;;27.30;20.43;;;8.20;99.90;;;;;;5032964;28;20439;-72
2022/11/30 03:58:27;;;;;;;22.77;19.70;;;8.00;99.90;;;;;;5032875;28;20431;-70
2022/11/30 04:01:05;;;;;;;22.67;19.87;;;7.80;99.90;;;;;;5033154;28;20515;-71
2022/11/30 04:03:31;;;;;;;25.70;21.10;;;7.80;99.90;;;;;;5033107;28;20536;-70
2022/11/30 04:05:57;;;;;;;23.27;18.80;;;8.00;99.90;;;;;;5032652;28;20433;-71
2022/11/30 04:08:23;;;;;;;25.57;21.03;;;7.90;99.90;;;;;;5032786;28;20190;-70
2022/11/30 04:10:53;;;;;;;30.90;24.13;;;8.10;99.90;;;;;;5033096;28;20501;-70
2022/11/30 04:13:20;;;;;;;23.33;19.50;;;8.30;99.90;;;;;;5033226;28;20424;-71
2022/11/30 04:15:46;;;;;;;23.83;18.43;;;8.20;99.90;;;;;;5032809;28;20963;-71
2022/11/30 04:18:13;;;;;;;29.57;21.13;;;8.10;99.90;;;;;;5031432;28;20471;-71
2022/11/30 04:20:39;;;;;;;26.60;20.40;;;8.00;99.90;;;;;;5031089;28;20419;-71
2022/11/30 04:23:04;;;;;;;23.43;19.27;;;7.90;99.90;;;;;;5032927;28;20448;-71
2022/11/30 04:25:30;;;;;;;26.03;19.03;;;7.80;99.90;;;;;;5032706;28;20164;-70
2022/11/30 04:27:56;;;;;;;21.90;18.13;;;7.70;99.90;;;;;;5032832;28;20237;-71
2022/11/30 04:30:22;;;;;;;21.80;18.00;;;7.80;99.90;;;;;;5032935;28;20242;-71
2022/11/30 04:32:47;;;;;;;22.40;18.57;;;7.90;99.90;;;;;;5032585;28;20165;-71
2022/11/30 04:35:13;;;;;;;24.03;19.07;;;7.90;99.90;;;;;;5032171;28;20463;-71
2022/11/30 04:37:38;;;;;;;20.43;17.53;;;8.00;99.90;;;;;;5033473;28;20237;-70
2022/11/30 04:40:05;;;;;;;20.80;18.57;;;7.90;99.90;;;;;;5036705;28;20540;-70
2022/11/30 04:42:31;;;;;;;20.47;17.00;;;7.90;99.90;;;;;;5036332;28;20221;-70
2022/11/30 04:44:56;;;;;;;22.93;18.60;;;7.70;99.90;;;;;;5036235;28;20412;-70
2022/11/30 04:47:22;;;;;;;19.30;17.13;;;7.60;99.90;;;;;;5036232;28;20289;-70
2022/11/30 04:49:47;;;;;;;23.90;19.97;;;7.60;99.90;;;;;;5034690;28;20186;-70
2022/11/30 04:52:13;;;;;;;27.40;19.90;;;7.80;99.90;;;;;;5035614;28;20264;-70
2022/11/30 04:54:39;;;;;;;20.63;17.07;;;8.10;99.90;;;;;;5036426;28;20170;-70
2022/11/30 04:57:05;;;;;;;23.10;19.30;;;8.10;99.90;;;;;;5036274;28;20700;-70
2022/11/30 04:59:31;;;;;;;22.00;17.73;;;8.10;99.90;;;;;;5036580;28;20525;-70
2022/11/30 05:01:56;;;;;;;26.30;19.53;;;7.80;99.90;;;;;;5035724;28;20540;-71
2022/11/30 05:04:22;;;;;;;24.50;19.00;;;7.60;99.90;;;;;;5034550;28;20210;-71
2022/11/30 05:06:47;;;;;;;25.30;19.57;;;7.60;99.90;;;;;;5035288;28;20195;-71
2022/11/30 05:09:13;;;;;;;20.90;17.40;;;7.70;99.90;;;;;;5036375;28;20172;-70
2022/11/30 05:11:39;;;;;;;24.90;20.13;;;7.70;99.90;;;;;;5034560;28;20178;-70
2022/11/30 05:14:04;;;;;;;20.07;16.50;;;7.70;99.90;;;;;;5035724;28;20596;-70
2022/11/30 05:16:30;;;;;;;20.17;16.70;;;7.60;99.90;;;;;;5035719;28;20165;-70
2022/11/30 05:18:55;;;;;;;28.93;21.00;;;7.70;99.90;;;;;;5035386;28;20693;-70
2022/11/30 05:21:21;;;;;;;23.57;19.07;;;7.80;99.90;;;;;;5035044;28;20228;-70
2022/11/30 05:23:47;;;;;;;20.97;17.97;;;8.10;99.90;;;;;;5035248;28;20173;-70
2022/11/30 05:26:13;;;;;;;20.83;16.90;;;8.00;99.90;;;;;;5035058;28;20172;-70
2022/11/30 05:28:39;;;;;;;22.07;18.20;;;8.10;99.90;;;;;;5028809;28;20448;-70
2022/11/30 05:31:05;;;;;;;20.07;17.43;;;8.10;99.90;;;;;;5018706;28;20773;-70
2022/11/30 05:33:32;;;;;;;23.57;19.33;;;8.30;99.90;;;;;;5015684;28;20223;-70
2022/11/30 05:35:57;;;;;;;22.23;17.33;;;8.30;99.90;;;;;;5015135;28;20441;-71
2022/11/30 05:38:24;;;;;;;21.57;17.10;;;8.10;99.90;;;;;;5015033;28;20470;-71
2022/11/30 05:40:49;;;;;;;21.50;18.40;;;8.00;99.90;;;;;;5018215;28;20603;-71
2022/11/30 05:43:15;;;;;;;25.30;20.00;;;8.20;99.90;;;;;;5035015;28;20453;-70
2022/11/30 05:45:41;;;;;;;21.63;17.20;;;8.40;99.90;;;;;;5034895;28;20170;-70
2022/11/30 05:48:06;;;;;;;22.50;18.67;;;8.50;99.90;;;;;;5034828;28;20191;-70
2022/11/30 05:50:32;;;;;;;22.97;19.70;;;8.50;99.90;;;;;;5032566;28;20182;-71
2022/11/30 05:52:59;;;;;;;25.70;21.30;;;8.50;99.90;;;;;;5035500;28;20170;-69
2022/11/30 05:55:26;;;;;;;23.03;18.60;;;8.70;99.90;;;;;;5035135;28;20171;-70
2022/11/30 05:57:52;;;;;;;24.60;19.60;;;8.70;99.90;;;;;;5034858;28;20997;-71
2022/11/30 06:00:18;;;;;;;26.83;21.47;;;8.60;99.90;;;;;;5034807;28;20968;-70
2022/11/30 06:02:44;;;;;;;21.63;17.53;;;8.50;99.90;;;;;;5034717;28;20989;-70
2022/11/30 06:05:10;;;;;;;20.67;18.13;;;8.50;99.90;;;;;;5034634;28;20413;-70
2022/11/30 06:07:36;;;;;;;20.13;16.83;;;8.50;99.90;;;;;;5034132;28;20724;-70
2022/11/30 06:10:02;;;;;;;17.53;15.43;;;8.30;99.90;;;;;;5034376;28;20414;-70
2022/11/30 06:12:28;;;;;;;19.20;16.20;;;7.90;99.90;;;;;;5033286;28;20545;-70
2022/11/30 06:14:53;;;;;;;20.40;15.77;;;7.80;99.90;;;;;;5034494;28;20408;-71
2022/11/30 06:17:19;;;;;;;18.80;16.00;;;7.80;99.90;;;;;;5015302;28;20229;-71
2022/11/30 06:19:44;;;;;;;21.13;16.93;;;8.00;99.90;;;;;;5014961;28;20180;-71
2022/11/30 06:22:10;;;;;;;18.40;14.83;;;7.90;99.90;;;;;;5014215;28;20194;-71
2022/11/30 06:24:36;;;;;;;23.70;20.77;;;7.90;99.90;;;;;;5014485;28;20210;-70
2022/11/30 06:27:01;;;;;;;20.50;16.57;;;8.10;99.90;;;;;;5013964;28;20187;-69
2022/11/30 06:29:27;;;;;;;18.60;16.70;;;8.30;99.90;;;;;;5014161;28;20164;-71
2022/11/30 06:31:52;;;;;;;20.73;16.30;;;8.20;99.90;;;;;;5014591;28;20253;-71
2022/11/30 06:34:18;;;;;;;21.77;17.03;;;8.00;99.90;;;;;;5014127;28;20222;-70
2022/11/30 06:36:43;;;;;;;20.83;17.17;;;7.80;99.90;;;;;;5013678;28;20187;-70
2022/11/30 06:39:11;;;;;;;34.50;23.67;;;7.80;99.90;;;;;;5014641;28;20170;-70
2022/11/30 06:41:37;;;;;;;26.93;20.53;;;7.70;99.90;;;;;;5025336;28;20230;-71
2022/11/30 06:44:07;;;;;;;26.70;23.20;;;7.80;99.90;;;;;;5033926;28;20515;-71
2022/11/30 06:46:33;;;;;;;26.37;22.17;;;8.00;99.90;;;;;;5034323;28;20223;-71
2022/11/30 06:48:58;;;;;;;25.60;20.70;;;8.20;99.90;;;;;;5033592;28;20914;-70
2022/11/30 06:51:24;;;;;;;19.50;16.80;;;8.00;99.90;;;;;;5032087;28;20209;-70
2022/11/30 06:53:49;;;;;;;22.80;19.80;;;7.70;99.90;;;;;;5033691;28;20212;-70
2022/11/30 06:56:15;;;;;;;21.07;17.70;;;7.70;99.90;;;;;;5033626;28;20652;-70
2022/11/30 06:58:41;;;;;;;25.00;19.13;;;7.70;99.90;;;;;;5032774;28;20214;-70
2022/11/30 07:01:09;;;;;;;23.73;18.00;;;7.80;99.90;;;;;;5033590;28;20216;-70
2022/11/30 07:03:35;;;;;;;26.60;18.70;;;7.90;99.90;;;;;;5033557;28;20262;-71
2022/11/30 07:06:09;;;;;;;54.53;40.13;;;7.90;99.90;;;;;;5033247;28;20397;-72
2022/11/30 07:08:35;;;;;;;23.20;18.77;;;8.10;99.90;;;;;;5033915;28;20516;-71
2022/11/30 07:11:00;;;;;;;22.07;18.80;;;8.40;99.90;;;;;;5033411;28;20447;-71
2022/11/30 07:13:26;;;;;;;19.70;17.33;;;8.60;99.90;;;;;;5033428;28;20403;-71
2022/11/30 07:15:51;;;;;;;22.57;18.60;;;8.70;99.90;;;;;;5033801;28;20193;-70
2022/11/30 07:18:17;;;;;;;18.80;16.80;;;8.90;99.90;;;;;;5033376;28;20186;-71
2022/11/30 07:20:43;;;;;;;23.80;19.97;;;8.90;99.90;;;;;;5033017;28;20168;-70
2022/11/30 07:26:05;;;;;;;23.10;19.23;;;8.80;99.90;;;;;;5033530;28;20161;-71
2022/11/30 07:28:38;;;;;;;31.63;22.63;;;8.60;99.90;;;;;;5032760;28;20430;-70
2022/11/30 07:31:16;;;;;;;25.30;20.70;;;8.70;99.90;;;;;;5033425;28;20384;-70
2022/11/30 07:33:41;;;;;;;26.87;21.90;;;8.70;99.90;;;;;;5033138;28;20776;-69
2022/11/30 07:36:08;;;;;;;26.77;22.13;;;8.30;99.90;;;;;;5029751;28;20409;-70
2022/11/30 07:38:33;;;;;;;25.20;20.30;;;8.40;99.90;;;;;;5013367;28;20214;-71
2022/11/30 07:40:59;;;;;;;21.80;18.90;;;8.50;99.90;;;;;;5013267;28;20405;-71
2022/11/30 07:43:24;;;;;;;24.77;19.80;;;8.70;99.90;;;;;;5012157;28;20198;-71
2022/11/30 07:45:54;;;;;;;25.97;19.37;;;8.80;99.90;;;;;;5013074;28;20170;-71
2022/11/30 07:48:20;;;;;;;21.80;18.67;;;9.00;99.90;;;;;;5012638;28;20218;-72
2022/11/30 07:50:47;;;;;;;21.83;17.20;;;9.10;99.90;;;;;;5014907;28;20436;-71
2022/11/30 07:53:13;;;;;;;22.10;18.43;;;9.10;99.90;;;;;;5031803;28;20408;-71
2022/11/30 07:55:39;;;;;;;20.53;18.33;;;9.00;99.90;;;;;;5031911;28;20438;-72
2022/11/30 07:58:05;;;;;;;23.70;18.17;;;9.00;99.90;;;;;;5031603;28;20448;-71
2022/11/30 08:00:30;;;;;;;19.60;16.60;;;8.90;99.90;;;;;;5032418;28;20244;-70
2022/11/30 08:02:56;;;;;;;25.70;19.67;;;8.90;99.90;;;;;;5032616;28;20196;-70
2022/11/30 08:05:22;;;;;;;20.20;16.70;;;8.60;99.90;;;;;;5030760;28;20546;-71
2022/11/30 08:07:52;;;;;;;22.23;17.70;;;8.60;99.90;;;;;;5031475;28;20179;-70
2022/11/30 08:10:19;;;;;;;24.07;18.20;;;8.70;99.90;;;;;;5032390;28;20410;-71
2022/11/30 08:12:45;;;;;;;25.17;19.20;;;8.80;99.90;;;;;;5032679;28;20420;-71
2022/11/30 08:15:10;;;;;;;25.53;19.70;;;9.00;99.90;;;;;;5035468;28;20410;-73
2022/11/30 08:17:36;;;;;;;25.17;19.80;;;9.00;99.90;;;;;;5035524;28;20276;-73
2022/11/30 08:20:02;;;;;;;24.93;18.80;;;8.70;99.90;;;;;;5036548;28;20171;-71
2022/11/30 08:22:28;;;;;;;23.13;18.43;;;8.90;99.90;;;;;;5022226;28;20253;-72
2022/11/30 08:24:53;;;;;;;24.10;18.33;;;9.00;99.90;;;;;;5035901;28;20454;-72
2022/11/30 08:27:19;;;;;;;24.43;19.63;;;9.00;99.90;;;;;;5035932;28;20188;-72
2022/11/30 08:29:44;;;;;;;25.80;18.87;;;9.00;99.90;;;;;;5035150;28;20561;-71
2022/11/30 08:32:10;;;;;;;26.37;18.60;;;9.10;99.90;;;;;;5036141;28;20193;-70
2022/11/30 08:34:36;;;;;;;21.97;17.77;;;9.20;99.90;;;;;;5036063;28;20215;-72
2022/11/30 08:37:03;;;;;;;26.17;20.57;;;9.20;99.90;;;;;;5035443;28;20256;-72
2022/11/30 08:39:30;;;;;;;24.80;20.00;;;9.00;99.90;;;;;;5036205;28;20171;-73
2022/11/30 08:41:56;;;;;;;25.33;20.13;;;9.00;99.90;;;;;;5035941;28;20453;-71
2022/11/30 08:44:22;;;;;;;24.27;19.53;;;9.00;99.90;;;;;;5034758;28;20421;-71
2022/11/30 08:46:47;;;;;;;23.47;18.40;;;8.90;99.90;;;;;;5036086;28;20420;-71
2022/11/30 08:49:13;;;;;;;24.77;19.10;;;9.10;99.90;;;;;;5036440;28;20213;-72
2022/11/30 08:51:39;;;;;;;21.10;16.90;;;9.30;99.90;;;;;;5035792;28;20169;-72
2022/11/30 08:54:04;;;;;;;20.43;17.33;;;9.30;99.90;;;;;;5035660;28;20180;-70
2022/11/30 08:56:30;;;;;;;22.80;18.13;;;9.40;99.90;;;;;;5034613;28;20252;-71
2022/11/30 08:58:55;;;;;;;22.60;18.07;;;9.60;99.90;;;;;;5034894;28;20286;-71
2022/11/30 09:01:23;;;;;;;24.87;18.90;;;9.70;99.90;;;;;;5036510;28;20207;-69
2022/11/30 09:03:52;;;;;;;22.03;18.23;;;9.80;99.90;;;;;;5037214;28;20169;-72
2022/11/30 09:06:24;;;;;;;21.57;17.63;;;9.90;99.90;;;;;;5036610;28;20417;-71
2022/11/30 09:08:51;;;;;;;25.57;18.73;;;9.80;99.90;;;;;;5036891;28;20501;-69
2022/11/30 09:11:29;;;;;;;23.57;17.30;;;9.80;99.90;;;;;;5034915;28;20428;-72
2022/11/30 09:13:58;;;;;;;24.80;18.17;;;9.70;99.90;;;;;;5037217;28;20387;-72
2022/11/30 09:16:24;;;;;;;23.27;18.27;;;9.80;99.90;;;;;;5037352;28;20426;-73
2022/11/30 09:18:51;;;;;;;23.20;16.70;;;9.90;99.90;;;;;;5039203;28;20434;-72
2022/11/30 09:21:20;;;;;;;22.57;16.70;;;10.00;99.90;;;;;;5039317;28;20411;-72
2022/11/30 09:23:46;;;;;;;22.00;18.23;;;9.90;99.90;;;;;;5035760;28;20496;-72
2022/11/30 09:26:15;;;;;;;24.40;19.40;;;10.00;99.90;;;;;;5035267;28;20399;-71
2022/11/30 09:28:40;;;;;;;27.27;18.70;;;10.00;99.90;;;;;;5035446;28;20423;-71
2022/11/30 09:31:10;;;;;;;24.33;19.37;;;10.10;99.90;;;;;;5035953;28;20401;-72
2022/11/30 09:33:36;;;;;;;25.40;19.30;;;10.20;99.90;;;;;;5035291;28;20595;-72
2022/11/30 09:36:05;;;;;;;23.10;19.07;;;10.30;99.90;;;;;;5034072;28;20406;-73
2022/11/30 09:38:31;;;;;;;19.37;16.33;;;10.30;99.90;;;;;;5045476;23;20489;-75
2022/11/30 09:41:00;;;;;;;20.70;16.53;;;10.20;99.90;;;;;;5014756;28;20461;-74
2022/11/30 09:43:55;;;;;;;18.60;15.17;;;10.10;99.90;;;;;;5014860;28;20190;-75
2022/11/30 09:46:32;;;;;;;20.90;16.23;;;10.20;99.90;;;;;;5016575;28;20827;-74
2022/11/30 09:49:20;;;;;;;19.47;16.93;;;10.10;99.90;;;;;;5015583;28;20935;-75
2022/11/30 09:51:48;;;;;;;21.93;17.00;;;9.70;99.90;;;;;;5014791;28;20472;-73
2022/11/30 09:54:18;;;;;;;20.87;16.10;;;9.90;99.90;;;;;;5014711;28;20402;-73
2022/11/30 09:56:45;;;;;;;22.13;18.27;;;9.80;99.90;;;;;;5013268;28;20502;-74
2022/11/30 09:59:28;;;;;;;28.10;20.50;;;9.50;99.90;;;;;;5014910;28;20439;-76
2022/11/30 10:01:56;;;;;;;21.63;17.33;;;9.60;99.90;;;;;;5015388;28;21000;-75
2022/11/30 10:04:27;;;;;;;23.33;18.53;;;9.80;99.90;;;;;;5014821;28;20411;-75
2022/11/30 10:07:10;;;;;;;25.73;19.57;;;9.80;99.90;;;;;;5014466;28;20906;-76
2022/11/30 10:09:44;;;;;;;24.67;19.53;;;9.70;99.90;;;;;;5014525;28;20419;-75
2022/11/30 10:12:22;;;;;;;22.50;18.43;;;9.90;99.90;;;;;;5013036;28;20434;-74
2022/11/30 10:15:04;;;;;;;25.40;18.33;;;10.00;99.90;;;;;;4997167;28;20911;-76
2022/11/30 10:17:50;;;;;;;21.30;16.40;;;10.20;99.90;;;;;;5014334;28;20619;-76
2022/11/30 10:20:50;;;;;;;19.40;15.80;;;10.40;99.90;;;;;;5004332;28;20423;-78
2022/11/30 10:23:40;;;;;;;25.83;18.97;;;10.50;99.90;;;;;;5018563;28;20782;-77
2022/11/30 10:26:10;;;;;;;23.23;17.50;;;10.50;99.90;;;;;;5014285;28;20872;-76
2022/11/30 10:28:44;;;;;;;19.10;16.50;;;10.50;99.90;;;;;;5014149;28;20448;-76
2022/11/30 10:31:12;;;;;;;22.10;16.33;;;10.40;99.90;;;;;;5015732;28;20391;-76
2022/11/30 10:33:43;;;;;;;20.40;16.47;;;10.40;99.90;;;;;;5014924;28;20484;-77
2022/11/30 10:36:14;;;;;;;22.20;16.93;;;10.10;99.90;;;;;;5014347;28;20395;-77
2022/11/30 10:38:43;;;;;;;28.87;19.80;;;9.80;99.90;;;;;;5014678;28;20446;-75
2022/11/30 10:41:18;;;;;;;23.47;18.37;;;9.50;99.90;;;;;;5012519;28;20425;-75
2022/11/30 10:43:46;;;;;;;22.23;16.60;;;9.40;99.90;;;;;;5013386;28;20441;-74
2022/11/30 10:46:23;;;;;;;23.27;17.50;;;9.50;99.90;;;;;;5014287;28;20409;-74
2022/11/30 10:48:57;;;;;;;20.70;15.43;;;9.60;99.90;;;;;;5013489;28;20488;-74
2022/11/30 10:51:24;;;;;;;19.77;15.30;;;9.70;99.90;;;;;;5013637;28;20809;-74
2022/11/30 10:53:49;;;;;;;19.97;13.73;;;9.80;99.90;;;;;;5013116;28;20407;-75
2022/11/30 10:56:15;;;;;;;20.53;14.20;;;9.90;99.90;;;;;;5012793;28;20410;-76
2022/11/30 10:58:55;;;;;;;18.97;14.63;;;9.80;99.90;;;;;;5012243;28;20200;-75
2022/11/30 11:01:39;;;;;;;19.17;15.43;;;10.00;99.90;;;;;;5014021;28;20673;-76
2022/11/30 11:04:14;;;;;;;21.23;15.30;;;9.80;99.90;;;;;;5012277;28;20918;-74
2022/11/30 11:06:53;;;;;;;20.63;14.57;;;9.60;99.90;;;;;;5013188;28;20874;-75
2022/11/30 11:09:48;;;;;;;19.10;14.77;;;9.60;99.90;;;;;;5013118;28;20381;-75
2022/11/30 11:12:14;;;;;;;18.40;15.33;;;9.70;99.90;;;;;;5005870;28;20428;-75
2022/11/30 11:14:40;;;;;;;23.03;17.77;;;9.80;99.90;;;;;;5003693;28;20417;-72
2022/11/30 11:17:25;;;;;;;21.00;15.93;;;9.80;99.90;;;;;;5009340;28;20173;-73
2022/11/30 11:19:51;;;;;;;20.70;17.03;;;9.80;99.90;;;;;;5013613;28;20147;-73
2022/11/30 11:22:22;;;;;;;21.27;16.83;;;9.80;99.90;;;;;;5013220;28;20452;-74
2022/11/30 11:24:49;;;;;;;19.10;15.10;;;9.70;99.90;;;;;;5013095;28;20415;-74
2022/11/30 11:27:26;;;;;;;20.90;17.47;;;9.80;99.90;;;;;;5012733;28;20489;-74
2022/11/30 11:30:14;;;;;;;19.10;14.80;;;9.80;99.90;;;;;;5013108;28;20854;-74
2022/11/30 11:32:39;;;;;;;19.33;15.70;;;9.50;99.90;;;;;;5012674;28;20496;-73
2022/11/30 11:35:36;;;;;;;21.73;15.43;;;9.50;99.90;;;;;;5014968;28;20440;-74
2022/11/30 11:38:03;;;;;;;16.13;13.73;;;9.70;99.90;;;;;;5004509;28;20292;-74
2022/11/30 11:40:29;;;;;;;19.50;15.03;;;9.60;99.90;;;;;;5013088;28;20506;-74
2022/11/30 11:42:57;;;;;;;16.17;12.73;;;9.80;99.90;;;;;;5013002;28;20841;-73
2022/11/30 11:45:26;;;;;;;21.07;14.80;;;9.90;99.90;;;;;;4996676;28;20945;-74
2022/11/30 11:47:59;;;;;;;14.67;12.73;;;10.00;99.90;;;;;;5009846;28;20899;-74
2022/11/30 11:50:30;;;;;;;16.30;13.93;;;10.10;99.90;;;;;;5012731;28;20410;-74
2022/11/30 11:53:40;;;;;;;15.07;12.23;;;9.80;99.90;;;;;;5012607;28;20426;-73
2022/11/30 11:56:25;;;;;;;13.63;11.17;;;10.00;99.90;;;;;;5003992;28;20431;-74
2022/11/30 11:59:12;;;;;;;12.33;10.57;;;10.30;99.90;;;;;;5011103;28;20501;-73
2022/11/30 12:02:14;;;;;;;15.43;11.60;;;10.10;99.90;;;;;;4996306;28;21089;-74
2022/11/30 12:04:49;;;;;;;14.00;11.90;;;10.00;99.90;;;;;;4993067;28;20414;-73
2022/11/30 12:07:25;;;;;;;15.40;12.63;;;9.90;99.90;;;;;;4992706;28;20475;-75
2022/11/30 12:10:24;;;;;;;16.57;12.70;;;9.80;99.90;;;;;;4993161;28;20779;-76
2022/11/30 12:12:51;;;;;;;18.47;14.60;;;9.90;99.90;;;;;;4992619;28;20502;-74
2022/11/30 12:15:17;;;;;;;15.13;12.77;;;10.00;99.90;;;;;;4993135;28;20501;-75
2022/11/30 12:18:06;;;;;;;16.90;14.00;;;10.00;99.90;;;;;;4992791;28;20465;-76
2022/11/30 12:21:04;;;;;;;19.60;13.63;;;10.10;99.90;;;;;;4993775;28;20155;-74
2022/11/30 12:23:59;;;;;;;16.03;13.17;;;9.50;99.90;;;;;;4986542;28;20935;-74
2022/11/30 12:26:36;;;;;;;15.17;13.50;;;9.50;99.90;;;;;;4957622;28;20443;-75
2022/11/30 12:29:05;;;;;;;17.73;13.70;;;9.20;99.90;;;;;;4992619;28;20420;-76
2022/11/30 12:31:41;;;;;;;16.53;13.63;;;9.10;99.90;;;;;;4993396;28;20503;-76
2022/11/30 12:34:22;;;;;;;21.00;15.10;;;9.10;99.90;;;;;;4975631;28;20411;-75
2022/11/30 12:37:00;;;;;;;17.70;14.90;;;9.20;99.90;;;;;;4993513;28;20412;-75
2022/11/30 12:39:46;;;;;;;18.50;15.30;;;8.90;99.90;;;;;;4993599;28;20395;-75
2022/11/30 12:42:41;;;;;;;16.43;13.10;;;8.50;99.90;;;;;;4993251;28;20854;-76
2022/11/30 12:45:19;;;;;;;18.27;14.43;;;8.50;99.90;;;;;;4992601;28;20440;-75
2022/11/30 12:48:25;;;;;;;21.43;16.07;;;8.50;99.90;;;;;;4993057;28;20424;-75
2022/11/30 12:50:54;;;;;;;20.17;14.27;;;8.70;99.90;;;;;;4895068;29;20452;-75
2022/11/30 12:53:25;;;;;;;19.33;14.70;;;8.50;99.90;;;;;;4895649;29;20433;-75